createdAt,value
2023-01-27T00:01:23.454Z,2.10
2023-01-27T00:03:53.292Z,2.10
2023-01-27T00:06:21.151Z,2.10
2023-01-27T00:08:48.948Z,2.10
2023-01-27T00:11:34.509Z,2.10
2023-01-27T00:14:02.367Z,2.10
2023-01-27T00:16:30.167Z,2.10
2023-01-27T00:18:59.303Z,2.10
2023-01-27T00:21:44.688Z,2.10
2023-01-27T00:24:31.346Z,2.10
2023-01-27T00:26:59.423Z,2.10
2023-01-27T00:29:27.288Z,2.10
2023-01-27T00:32:12.751Z,2.00
2023-01-27T00:34:41.936Z,2.00
2023-01-27T00:37:09.835Z,2.10
2023-01-27T00:39:37.654Z,2.10
2023-01-27T00:42:05.834Z,2.10
2023-01-27T00:44:33.698Z,2.10
2023-01-27T00:47:02.043Z,2.00
2023-01-27T00:49:29.880Z,2.10
2023-01-27T00:51:59.100Z,2.00
2023-01-27T00:54:26.904Z,2.00
2023-01-27T00:56:54.814Z,2.00
2023-01-27T00:59:23.029Z,2.00
2023-01-27T01:01:50.865Z,2.00
2023-01-27T01:04:18.675Z,2.00
2023-01-27T01:06:46.481Z,2.00
2023-01-27T01:09:15.963Z,2.00
2023-01-27T01:11:43.748Z,2.00
2023-01-27T01:14:11.578Z,1.90
2023-01-27T01:16:39.419Z,1.90
2023-01-27T01:19:07.338Z,1.90
2023-01-27T01:21:35.176Z,1.90
2023-01-27T01:24:03.044Z,1.90
2023-01-27T01:26:32.235Z,1.90
2023-01-27T01:29:00.015Z,1.90
2023-01-27T01:31:27.896Z,1.90
2023-01-27T01:33:55.753Z,1.90
2023-01-27T01:36:23.569Z,1.90
2023-01-27T01:38:56.384Z,1.90
2023-01-27T01:41:25.071Z,1.90
2023-01-27T01:43:54.423Z,1.90
2023-01-27T01:46:23.380Z,1.90
2023-01-27T01:48:54.700Z,1.90
2023-01-27T01:51:26.814Z,1.80
2023-01-27T01:53:58.522Z,1.80
2023-01-27T01:56:31.607Z,1.80
2023-01-27T01:59:04.855Z,1.80
2023-01-27T02:01:32.964Z,1.80
2023-01-27T02:04:05.522Z,1.80
2023-01-27T02:06:40.978Z,1.80
2023-01-27T02:09:09.089Z,1.80
2023-01-27T02:11:36.965Z,1.70
2023-01-27T02:14:06.243Z,1.70
2023-01-27T02:16:34.508Z,1.70
2023-01-27T02:19:03.337Z,1.70
2023-01-27T02:21:31.603Z,1.70
2023-01-27T02:24:02.901Z,1.70
2023-01-27T02:26:35.112Z,1.70
2023-01-27T02:29:06.825Z,1.70
2023-01-27T02:31:35.043Z,1.70
2023-01-27T02:34:07.245Z,1.70
2023-01-27T02:36:38.936Z,1.70
2023-01-27T02:39:08.447Z,1.60
2023-01-27T02:41:41.149Z,1.60
2023-01-27T02:44:09.876Z,1.60
2023-01-27T02:46:38.352Z,1.60
2023-01-27T02:49:06.290Z,1.60
2023-01-27T02:51:34.213Z,1.60
2023-01-27T02:54:02.354Z,1.60
2023-01-27T02:56:30.228Z,1.60
2023-01-27T02:58:59.532Z,1.60
2023-01-27T03:01:27.507Z,1.60
2023-01-27T03:03:55.357Z,1.60
2023-01-27T03:06:23.150Z,1.60
2023-01-27T03:08:51.154Z,1.60
2023-01-27T03:11:39.612Z,1.60
2023-01-27T03:14:09.696Z,1.60
2023-01-27T03:16:54.969Z,1.60
2023-01-27T03:19:22.865Z,1.60
2023-01-27T03:21:51.025Z,1.60
2023-01-27T03:24:19.188Z,1.60
2023-01-27T03:26:47.099Z,1.60
2023-01-27T03:29:30.362Z,1.60
2023-01-27T03:31:58.299Z,1.60
2023-01-27T03:34:26.173Z,1.60
2023-01-27T03:37:11.761Z,1.60
2023-01-27T03:39:57.010Z,1.60
2023-01-27T03:42:42.358Z,1.60
2023-01-27T03:45:29.328Z,1.60
2023-01-27T03:47:57.127Z,1.60
2023-01-27T03:50:31.110Z,1.60
2023-01-27T03:53:03.913Z,1.60
2023-01-27T03:55:32.004Z,1.60
2023-01-27T03:58:13.956Z,1.60
2023-01-27T04:00:43.149Z,1.60
2023-01-27T04:03:28.607Z,1.60
2023-01-27T04:06:13.839Z,1.60
2023-01-27T04:08:43.729Z,1.50
2023-01-27T04:11:31.532Z,1.60
2023-01-27T04:14:02.922Z,1.60
2023-01-27T04:16:32.225Z,1.60
2023-01-27T04:19:00.171Z,1.60
2023-01-27T04:21:28.234Z,1.50
2023-01-27T04:23:56.330Z,1.50
2023-01-27T04:26:24.892Z,1.60
2023-01-27T04:28:53.095Z,1.60
2023-01-27T04:31:20.919Z,1.60
2023-01-27T04:33:50.131Z,1.60
2023-01-27T04:36:18.011Z,1.60
2023-01-27T04:38:45.949Z,1.60
2023-01-27T04:41:13.776Z,1.60
2023-01-27T04:43:41.625Z,1.60
2023-01-27T04:46:09.689Z,1.60
2023-01-27T04:48:37.619Z,1.60
2023-01-27T04:51:07.024Z,1.60
2023-01-27T04:53:34.926Z,1.70
2023-01-27T04:56:05.154Z,1.70
2023-01-27T04:58:33.223Z,1.70
2023-01-27T05:01:01.059Z,1.70
2023-01-27T05:03:28.903Z,1.70
2023-01-27T05:05:56.722Z,1.70
2023-01-27T05:08:25.843Z,1.70
2023-01-27T05:10:53.680Z,1.70
2023-01-27T05:13:21.447Z,1.70
2023-01-27T05:15:49.378Z,1.70
2023-01-27T05:18:17.232Z,1.70
2023-01-27T05:20:45.038Z,1.70
2023-01-27T05:23:30.183Z,1.70
2023-01-27T05:26:02.727Z,1.80
2023-01-27T05:28:30.587Z,1.70
2023-01-27T05:31:02.728Z,1.70
2023-01-27T05:33:30.638Z,1.70
2023-01-27T05:36:01.017Z,1.80
2023-01-27T05:38:29.288Z,1.70
2023-01-27T05:41:00.909Z,1.70
2023-01-27T05:43:30.410Z,1.70
2023-01-27T05:46:09.107Z,1.70
2023-01-27T05:48:38.184Z,1.70
2023-01-27T05:51:07.220Z,1.70
2023-01-27T05:53:36.340Z,1.70
2023-01-27T05:56:08.701Z,1.70
2023-01-27T05:58:36.590Z,1.70
2023-01-27T06:01:09.392Z,1.70
2023-01-27T06:03:37.543Z,1.70
2023-01-27T06:06:06.741Z,1.70
2023-01-27T06:08:35.143Z,1.70
2023-01-27T06:11:03.004Z,1.70
2023-01-27T06:13:35.532Z,1.70
2023-01-27T06:16:04.380Z,1.70
2023-01-27T06:18:32.273Z,1.70
2023-01-27T06:21:00.361Z,1.70
2023-01-27T06:23:28.937Z,1.70
2023-01-27T06:25:57.591Z,1.70
2023-01-27T06:28:29.885Z,1.70
2023-01-27T06:31:06.324Z,1.70
2023-01-27T06:33:34.551Z,1.70
2023-01-27T06:36:03.698Z,1.70
2023-01-27T06:38:31.585Z,1.70
2023-01-27T06:40:59.464Z,1.70
2023-01-27T06:43:27.304Z,1.80
2023-01-27T06:45:57.404Z,1.80
2023-01-27T06:48:26.969Z,1.80
2023-01-27T06:50:55.348Z,1.80
2023-01-27T06:53:23.551Z,1.80
2023-01-27T06:55:56.423Z,1.80
2023-01-27T06:58:24.288Z,1.80
2023-01-27T07:00:52.188Z,1.80
2023-01-27T07:03:20.360Z,1.80
2023-01-27T07:05:49.554Z,1.80
2023-01-27T07:08:17.422Z,1.80
2023-01-27T07:10:45.222Z,1.80
2023-01-27T07:13:14.368Z,1.80
2023-01-27T07:15:42.847Z,1.80
2023-01-27T07:18:11.950Z,1.80
2023-01-27T07:20:41.353Z,1.80
2023-01-27T07:23:13.049Z,1.80
2023-01-27T07:25:41.204Z,1.90
2023-01-27T07:28:09.025Z,1.90
2023-01-27T07:30:38.743Z,1.90
2023-01-27T07:33:07.978Z,1.80
2023-01-27T07:35:37.320Z,1.90
2023-01-27T07:38:05.856Z,1.90
2023-01-27T07:40:35.578Z,1.90
2023-01-27T07:43:03.866Z,1.90
2023-01-27T07:45:31.902Z,1.90
2023-01-27T07:48:03.098Z,1.90
2023-01-27T07:50:31.323Z,1.90
2023-01-27T07:53:01.043Z,1.90
2023-01-27T07:55:29.174Z,1.90
2023-01-27T07:57:59.537Z,1.90
2023-01-27T08:00:28.190Z,1.90
2023-01-27T08:02:57.090Z,1.90
2023-01-27T08:05:25.613Z,1.90
2023-01-27T08:07:54.567Z,1.90
2023-01-27T08:10:22.686Z,1.90
2023-01-27T08:12:50.551Z,1.90
2023-01-27T08:15:19.825Z,1.90
2023-01-27T08:17:54.917Z,2.00
2023-01-27T08:20:23.355Z,2.00
2023-01-27T08:22:51.214Z,2.00
2023-01-27T08:25:19.499Z,2.00
2023-01-27T08:27:50.830Z,2.10
2023-01-27T08:30:20.878Z,2.10
2023-01-27T08:32:48.795Z,2.10
2023-01-27T08:35:16.720Z,2.10
2023-01-27T08:37:45.751Z,2.10
2023-01-27T08:40:15.523Z,2.20
2023-01-27T08:42:43.416Z,2.20
2023-01-27T08:45:11.474Z,2.20
2023-01-27T08:47:40.640Z,2.30
2023-01-27T08:50:10.409Z,2.30
2023-01-27T08:52:38.561Z,2.30
2023-01-27T08:55:06.832Z,2.30
2023-01-27T08:57:36.756Z,2.30
2023-01-27T09:00:06.813Z,2.40
2023-01-27T09:02:34.693Z,2.40
2023-01-27T09:05:03.920Z,2.40
2023-01-27T09:07:33.034Z,2.40
2023-01-27T09:10:13.729Z,2.50
2023-01-27T09:12:42.309Z,2.50
2023-01-27T09:15:11.155Z,2.50
2023-01-27T09:17:38.894Z,2.60
2023-01-27T09:20:09.403Z,2.60
2023-01-27T09:22:40.056Z,2.60
2023-01-27T09:25:08.964Z,2.60
2023-01-27T09:27:39.698Z,2.60
2023-01-27T09:30:09.324Z,2.70
2023-01-27T09:32:37.047Z,2.70
2023-01-27T09:35:05.389Z,2.70
2023-01-27T09:37:39.410Z,2.70
2023-01-27T09:40:16.474Z,2.80
2023-01-27T09:42:56.244Z,2.80
2023-01-27T09:45:48.899Z,2.80
2023-01-27T09:48:36.703Z,2.80
2023-01-27T09:51:14.851Z,2.90
2023-01-27T09:54:01.093Z,2.90
2023-01-27T09:56:39.233Z,2.90
2023-01-27T09:59:19.527Z,2.90
2023-01-27T10:01:58.626Z,3.00
2023-01-27T10:04:46.043Z,3.00
2023-01-27T10:07:41.754Z,3.00
2023-01-27T10:10:26.888Z,3.00
2023-01-27T10:13:06.476Z,3.10
2023-01-27T10:15:48.731Z,3.10
2023-01-27T10:18:32.098Z,3.20
2023-01-27T10:21:08.131Z,3.30
2023-01-27T10:23:45.496Z,3.30
2023-01-27T10:26:24.328Z,3.40
2023-01-27T10:28:58.558Z,3.40
2023-01-27T10:31:27.762Z,3.40
2023-01-27T10:33:58.270Z,3.40
2023-01-27T10:36:28.760Z,3.40
2023-01-27T10:39:11.153Z,3.40
2023-01-27T10:41:47.840Z,3.40
2023-01-27T10:44:31.130Z,3.40
2023-01-27T10:47:08.270Z,3.40
2023-01-27T10:49:41.099Z,3.40
2023-01-27T10:52:14.086Z,3.40
2023-01-27T10:54:48.916Z,3.40
2023-01-27T10:57:22.920Z,3.40
2023-01-27T11:00:21.919Z,3.40
2023-01-27T11:02:50.896Z,3.40
2023-01-27T11:05:23.212Z,3.40
2023-01-27T11:07:57.521Z,3.40
2023-01-27T11:10:31.523Z,3.40
2023-01-27T11:13:02.763Z,3.50
2023-01-27T11:15:33.023Z,3.50
2023-01-27T11:18:06.385Z,3.50
2023-01-27T11:20:39.025Z,3.50
2023-01-27T11:23:16.115Z,3.50
2023-01-27T11:25:52.686Z,3.50
2023-01-27T11:28:32.040Z,3.50
2023-01-27T11:31:08.784Z,3.50
2023-01-27T11:33:49.269Z,3.50
2023-01-27T11:36:16.989Z,3.60
2023-01-27T11:38:44.960Z,3.60
2023-01-27T11:41:12.762Z,3.60
2023-01-27T11:43:41.964Z,3.60
2023-01-27T11:46:18.780Z,3.70
2023-01-27T11:48:49.346Z,3.70
2023-01-27T11:51:21.400Z,3.70
2023-01-27T11:53:53.989Z,3.70
2023-01-27T11:56:22.078Z,3.70
2023-01-27T11:59:04.340Z,3.70
2023-01-27T12:01:41.036Z,3.80
2023-01-27T12:04:14.968Z,3.80
2023-01-27T12:06:47.689Z,3.80
2023-01-27T12:09:31.424Z,3.80
2023-01-27T12:12:12.458Z,3.90
2023-01-27T12:14:48.180Z,3.90
2023-01-27T12:17:23.659Z,3.90
2023-01-27T12:19:53.189Z,4.00
2023-01-27T12:22:25.635Z,4.00
2023-01-27T12:24:56.807Z,4.00
2023-01-27T12:27:28.050Z,4.00
2023-01-27T12:30:00.181Z,4.10
2023-01-27T12:32:38.446Z,4.10
2023-01-27T12:35:08.228Z,4.10
2023-01-27T12:37:39.531Z,4.10
2023-01-27T12:40:17.543Z,4.00
2023-01-27T12:42:50.858Z,4.10
2023-01-27T12:45:30.053Z,4.10
2023-01-27T12:48:01.052Z,4.00
2023-01-27T12:50:30.688Z,4.10
2023-01-27T12:53:07.325Z,4.00
2023-01-27T12:55:37.036Z,4.00
2023-01-27T12:58:05.012Z,4.00
2023-01-27T13:00:35.008Z,3.90
2023-01-27T13:03:07.208Z,3.90
2023-01-27T13:05:41.947Z,3.80
2023-01-27T13:08:15.971Z,3.80
2023-01-27T13:10:52.089Z,3.80
2023-01-27T13:13:24.143Z,3.80
2023-01-27T13:16:06.583Z,3.80
2023-01-27T13:18:38.275Z,3.70
2023-01-27T13:21:13.932Z,3.70
2023-01-27T13:23:42.288Z,3.70
2023-01-27T13:26:19.429Z,3.70
2023-01-27T13:28:53.763Z,3.70
2023-01-27T13:31:32.760Z,3.70
2023-01-27T13:34:05.615Z,3.70
2023-01-27T13:36:37.441Z,3.70
2023-01-27T13:39:15.392Z,3.70
2023-01-27T13:41:48.512Z,3.70
2023-01-27T13:44:25.474Z,3.70
2023-01-27T13:46:57.306Z,3.70
2023-01-27T13:49:34.045Z,3.70
2023-01-27T13:52:01.752Z,3.70
2023-01-27T13:54:30.072Z,3.70
2023-01-27T13:57:09.531Z,3.70
2023-01-27T13:59:46.940Z,3.70
2023-01-27T14:02:53.291Z,3.70
2023-01-27T14:05:36.085Z,3.60
2023-01-27T14:08:18.581Z,3.70
2023-01-27T14:10:59.881Z,3.70
2023-01-27T14:13:35.301Z,3.70
2023-01-27T14:16:10.527Z,3.60
2023-01-27T14:18:42.868Z,3.60
2023-01-27T14:21:40.125Z,3.60
2023-01-27T14:24:23.920Z,3.60
2023-01-27T14:26:56.077Z,3.60
2023-01-27T14:29:34.691Z,3.60
2023-01-27T14:32:13.703Z,3.60
2023-01-27T14:34:54.944Z,3.70
2023-01-27T14:37:29.645Z,3.70
2023-01-27T14:40:14.309Z,3.70
2023-01-27T14:42:49.269Z,3.70
2023-01-27T14:45:22.517Z,3.70
2023-01-27T14:47:59.046Z,3.70
2023-01-27T14:50:34.387Z,3.70
2023-01-27T14:53:20.991Z,3.70
2023-01-27T14:55:56.482Z,3.70
2023-01-27T14:58:41.985Z,3.70
2023-01-27T15:01:20.713Z,3.70
2023-01-27T15:04:24.093Z,3.60
2023-01-27T15:06:57.029Z,3.60
2023-01-27T15:09:43.271Z,3.50
2023-01-27T15:12:30.711Z,3.50
2023-01-27T15:15:31.919Z,3.50
2023-01-27T15:18:12.600Z,3.50
2023-01-27T15:21:05.572Z,3.40
2023-01-27T15:23:59.929Z,3.40
2023-01-27T15:26:30.900Z,3.40
2023-01-27T15:28:59.792Z,3.30
2023-01-27T15:31:29.113Z,3.30
2023-01-27T15:33:58.582Z,3.30
2023-01-27T15:36:59.679Z,3.30
2023-01-27T15:39:40.488Z,3.30
2023-01-27T15:42:13.738Z,3.30
2023-01-27T15:44:58.562Z,3.20
2023-01-27T15:47:28.463Z,3.20
2023-01-27T15:50:08.265Z,3.10
2023-01-27T15:52:42.056Z,3.10
2023-01-27T15:55:24.983Z,3.10
2023-01-27T15:58:04.328Z,3.00
2023-01-27T16:00:35.785Z,3.00
2023-01-27T16:03:06.541Z,3.00
2023-01-27T16:05:38.604Z,3.00
2023-01-27T16:08:14.712Z,3.00
2023-01-27T16:10:43.449Z,3.00
2023-01-27T16:13:22.131Z,3.00
2023-01-27T16:15:49.967Z,2.90
2023-01-27T16:18:41.067Z,2.90
2023-01-27T16:21:37.264Z,2.90
2023-01-27T16:24:12.591Z,2.90
2023-01-27T16:26:46.556Z,2.90
2023-01-27T16:29:26.139Z,2.80
2023-01-27T16:31:59.850Z,2.80
2023-01-27T16:34:34.981Z,2.80
2023-01-27T16:37:16.261Z,2.80
2023-01-27T16:39:47.456Z,2.80
2023-01-27T16:42:16.386Z,2.80
2023-01-27T16:44:47.621Z,2.80
2023-01-27T16:47:22.352Z,2.80
2023-01-27T16:49:52.994Z,2.70
2023-01-27T16:52:40.862Z,2.80
2023-01-27T16:55:22.007Z,2.80
2023-01-27T16:57:50.645Z,2.80
2023-01-27T17:00:21.681Z,2.80
2023-01-27T17:02:50.741Z,2.80
2023-01-27T17:05:20.150Z,2.80
2023-01-27T17:10:49.664Z,2.70
2023-01-27T17:13:36.967Z,2.70
2023-01-27T17:16:08.114Z,2.70
2023-01-27T17:18:51.715Z,2.70
2023-01-27T17:21:43.062Z,2.70
2023-01-27T17:24:16.937Z,2.60
2023-01-27T17:26:49.872Z,2.60
2023-01-27T17:29:20.758Z,2.60
2023-01-27T17:31:49.555Z,2.60
2023-01-27T17:34:20.211Z,2.60
2023-01-27T17:37:14.858Z,2.70
2023-01-27T17:39:43.122Z,2.60
2023-01-27T17:42:17.539Z,2.60
2023-01-27T17:44:45.541Z,2.60
2023-01-27T17:47:15.695Z,2.60
2023-01-27T17:49:44.825Z,2.60
2023-01-27T17:52:17.415Z,2.50
2023-01-27T17:54:46.860Z,2.50
2023-01-27T17:57:21.543Z,2.50
2023-01-27T17:59:58.428Z,2.50
2023-01-27T18:02:29.328Z,2.50
2023-01-27T18:05:00.491Z,2.40
2023-01-27T18:07:28.606Z,2.40
2023-01-27T18:09:57.792Z,2.50
2023-01-27T18:12:36.123Z,2.50
2023-01-27T18:15:38.980Z,2.50
2023-01-27T18:18:19.812Z,2.40
2023-01-27T18:20:53.581Z,2.40
2023-01-27T18:23:28.084Z,2.50
2023-01-27T18:26:08.635Z,2.50
2023-01-27T18:28:38.992Z,2.40
2023-01-27T18:31:15.819Z,2.40
2023-01-27T18:33:44.422Z,2.40
2023-01-27T18:36:21.835Z,2.40
2023-01-27T18:38:50.742Z,2.40
2023-01-27T18:41:26.476Z,2.40
2023-01-27T18:43:55.941Z,2.40
2023-01-27T18:46:23.908Z,2.30
2023-01-27T18:48:51.809Z,2.40
2023-01-27T18:51:19.670Z,2.40
2023-01-27T18:53:47.432Z,2.30
2023-01-27T18:56:15.230Z,2.40
2023-01-27T18:58:43.041Z,2.30
2023-01-27T19:01:20.960Z,2.30
2023-01-27T19:03:50.772Z,2.30
2023-01-27T19:06:18.919Z,2.30
2023-01-27T19:08:48.795Z,2.30
2023-01-27T19:11:17.197Z,2.40
2023-01-27T19:13:45.846Z,2.40
2023-01-27T19:16:17.626Z,2.40
2023-01-27T19:18:46.299Z,2.40
2023-01-27T19:21:16.003Z,2.40
2023-01-27T19:23:44.610Z,2.40
2023-01-27T19:26:17.687Z,2.30
2023-01-27T19:28:47.512Z,2.30
2023-01-27T19:31:16.713Z,2.30
2023-01-27T19:33:45.013Z,2.30
2023-01-27T19:36:21.627Z,2.30
2023-01-27T19:38:50.013Z,2.30
2023-01-27T19:41:17.714Z,2.30
2023-01-27T19:43:49.769Z,2.30
2023-01-27T19:46:22.062Z,2.30
2023-01-27T19:48:50.121Z,2.30
2023-01-27T19:51:18.728Z,2.30
2023-01-27T19:53:46.658Z,2.30
2023-01-27T19:56:17.212Z,2.30
2023-01-27T19:58:47.058Z,2.30
2023-01-27T20:01:14.871Z,2.30
2023-01-27T20:03:44.007Z,2.30
2023-01-27T20:06:17.682Z,2.30
2023-01-27T20:08:45.862Z,2.30
2023-01-27T20:11:33.751Z,2.30
2023-01-27T20:14:02.484Z,2.30
2023-01-27T20:16:30.629Z,2.30
2023-01-27T20:19:00.433Z,2.20
2023-01-27T20:21:31.215Z,2.20
2023-01-27T20:23:59.151Z,2.30
2023-01-27T20:26:29.384Z,2.30
2023-01-27T20:28:57.155Z,2.20
2023-01-27T20:31:24.930Z,2.20
2023-01-27T20:33:53.038Z,2.20
2023-01-27T20:36:23.808Z,2.20
2023-01-27T20:38:52.611Z,2.20
2023-01-27T20:41:22.403Z,2.20
2023-01-27T20:43:50.264Z,2.20
2023-01-27T20:46:20.736Z,2.20
2023-01-27T20:48:48.556Z,2.20
2023-01-27T20:51:17.237Z,2.20
2023-01-27T20:53:46.633Z,2.20
2023-01-27T20:56:16.089Z,2.20
2023-01-27T20:58:43.900Z,2.20
2023-01-27T21:01:13.835Z,2.20
2023-01-27T21:03:42.517Z,2.20
2023-01-27T21:06:11.644Z,2.20
2023-01-27T21:08:39.855Z,2.20
2023-01-27T21:11:11.159Z,2.20
2023-01-27T21:13:39.315Z,2.20
2023-01-27T21:16:07.494Z,2.20
2023-01-27T21:18:36.450Z,2.20
2023-01-27T21:21:04.912Z,2.10
2023-01-27T21:23:34.550Z,2.20
2023-01-27T21:26:05.265Z,2.10
2023-01-27T21:28:34.812Z,2.10
2023-01-27T21:31:06.749Z,2.10
2023-01-27T21:33:36.473Z,2.10
2023-01-27T21:36:04.637Z,2.10
2023-01-27T21:38:32.833Z,2.10
2023-01-27T21:41:05.373Z,2.10
2023-01-27T21:43:51.764Z,2.00
2023-01-27T21:46:19.785Z,2.00
2023-01-27T21:48:47.758Z,2.00
2023-01-27T21:51:15.671Z,2.00
2023-01-27T21:53:43.457Z,2.00
2023-01-27T21:56:13.233Z,2.00
2023-01-27T21:58:42.469Z,2.00
2023-01-27T22:01:11.825Z,2.00
2023-01-27T22:03:39.572Z,2.00
2023-01-27T22:06:08.901Z,2.00
2023-01-27T22:08:37.357Z,2.00
2023-01-27T22:11:05.679Z,2.00
2023-01-27T22:13:33.972Z,1.90
2023-01-27T22:16:04.078Z,1.90
2023-01-27T22:18:32.360Z,1.90
2023-01-27T22:21:02.360Z,1.90
2023-01-27T22:23:30.136Z,1.90
2023-01-27T22:25:57.847Z,1.90
2023-01-27T22:28:26.482Z,1.80
2023-01-27T22:30:54.736Z,1.80
2023-01-27T22:33:23.777Z,1.80
2023-01-27T22:35:59.810Z,1.80
2023-01-27T22:38:27.511Z,1.80
2023-01-27T22:40:58.518Z,1.80
2023-01-27T22:43:26.362Z,1.80
2023-01-27T22:45:54.207Z,1.80
2023-01-27T22:48:23.296Z,1.80
2023-01-27T22:50:51.002Z,1.80
2023-01-27T22:53:18.707Z,1.70
2023-01-27T22:55:46.418Z,1.70
2023-01-27T22:58:14.139Z,1.70
2023-01-27T23:00:41.834Z,1.60
2023-01-27T23:03:09.550Z,1.60
2023-01-27T23:05:38.608Z,1.60
2023-01-27T23:08:06.352Z,1.60
2023-01-27T23:10:34.869Z,1.50
2023-01-27T23:13:02.578Z,1.50
2023-01-27T23:15:30.320Z,1.50
2023-01-27T23:17:58.049Z,1.40
2023-01-27T23:20:25.893Z,1.40
2023-01-27T23:22:54.917Z,1.30
2023-01-27T23:25:22.690Z,1.30
2023-01-27T23:27:50.376Z,1.30
2023-01-27T23:30:19.688Z,1.20
2023-01-27T23:32:47.384Z,1.20
2023-01-27T23:35:16.235Z,1.20
2023-01-27T23:37:44.109Z,1.20
2023-01-27T23:40:14.088Z,1.20
2023-01-27T23:42:41.825Z,1.20
2023-01-27T23:45:10.121Z,1.20
2023-01-27T23:47:37.850Z,1.10
2023-01-27T23:50:06.317Z,1.10
2023-01-27T23:52:35.368Z,1.10
2023-01-27T23:55:03.173Z,1.10
2023-01-27T23:57:32.271Z,1.10
